Time;durP1;ratioP1;P1;durP2;ratioP2;P2;SDS_P1;SDS_P2;PMS_P1;PMS_P2;Temp;Humidity;BMP_temperature;BMP_pressure;BME280_temperature;BME280_humidity;BME280_pressure;Samples;Min_cycle;Max_cycle;Signal;HPM_P1;HPM_P2
2023/09/07 00:01:52;;;;;;;16.98;9.63;;;18.20;99.90;;;;;;5008656;28;20096;-73
2023/09/07 00:04:19;;;;;;;16.13;9.95;;;18.10;99.90;;;;;;5013176;28;20034;-73
2023/09/07 00:06:45;;;;;;;21.30;10.10;;;18.10;99.90;;;;;;5008626;28;20026;-73
2023/09/07 00:09:11;;;;;;;14.80;9.45;;;18.00;99.90;;;;;;5009280;28;20172;-73
2023/09/07 00:11:38;;;;;;;15.60;10.02;;;18.00;99.90;;;;;;5013422;28;20489;-73
2023/09/07 00:14:04;;;;;;;16.48;9.90;;;18.10;99.90;;;;;;5013305;28;20025;-73
2023/09/07 00:16:35;;;;;;;19.77;11.25;;;18.10;99.90;;;;;;5009508;28;20058;-73
2023/09/07 00:19:02;;;;;;;19.38;10.65;;;18.00;99.90;;;;;;5002518;28;20176;-73
2023/09/07 00:21:28;;;;;;;17.08;10.40;;;18.10;99.90;;;;;;5009557;28;20038;-73
2023/09/07 00:23:55;;;;;;;16.50;10.38;;;18.00;99.90;;;;;;5012617;28;20032;-73
2023/09/07 00:26:20;;;;;;;19.95;11.18;;;17.90;99.90;;;;;;5006515;28;20029;-73
2023/09/07 00:28:47;;;;;;;17.10;10.88;;;18.00;99.90;;;;;;5012942;28;20063;-73
2023/09/07 00:31:12;;;;;;;16.77;11.38;;;17.90;99.90;;;;;;4994646;28;20053;-73
2023/09/07 00:33:39;;;;;;;17.25;10.93;;;17.80;99.90;;;;;;5013062;28;20026;-73
2023/09/07 00:36:05;;;;;;;17.42;10.38;;;17.80;99.90;;;;;;5012767;28;20417;-74
2023/09/07 00:38:31;;;;;;;14.23;9.60;;;17.80;99.90;;;;;;5010205;28;20104;-73
2023/09/07 00:40:57;;;;;;;16.23;9.88;;;17.80;99.90;;;;;;5011570;28;20105;-73
2023/09/07 00:43:22;;;;;;;14.82;10.35;;;17.70;99.90;;;;;;5006324;28;20581;-73
2023/09/07 00:45:49;;;;;;;15.10;10.13;;;17.70;99.90;;;;;;5007720;28;20058;-73
2023/09/07 00:48:18;;;;;;;14.38;9.90;;;17.70;99.90;;;;;;4990246;28;20033;-73
2023/09/07 00:50:44;;;;;;;16.42;10.27;;;17.70;99.90;;;;;;4994710;28;20072;-73
2023/09/07 00:53:14;;;;;;;18.40;11.75;;;17.70;99.90;;;;;;5012124;28;20367;-73
2023/09/07 00:55:40;;;;;;;21.65;10.68;;;17.70;99.90;;;;;;5012721;28;20533;-73
2023/09/07 00:58:06;;;;;;;19.05;10.80;;;17.60;99.90;;;;;;4994918;28;20129;-73
2023/09/07 01:00:34;;;;;;;15.75;10.90;;;17.50;99.90;;;;;;5011880;28;20030;-73
2023/09/07 01:03:00;;;;;;;14.38;10.23;;;17.50;99.90;;;;;;5012368;28;20030;-73
2023/09/07 01:05:43;;;;;;;16.77;9.18;;;17.50;99.90;;;;;;5011771;28;20060;-73
2023/09/07 01:08:19;;;;;;;17.48;10.75;;;17.40;99.90;;;;;;4994475;28;20077;-73
2023/09/07 01:10:44;;;;;;;16.63;9.65;;;17.50;99.90;;;;;;4994640;28;20125;-73
2023/09/07 01:13:10;;;;;;;27.42;10.52;;;17.40;99.90;;;;;;4994312;28;20133;-73
2023/09/07 01:15:38;;;;;;;19.48;9.65;;;17.40;99.90;;;;;;4994561;28;20034;-73
2023/09/07 01:18:04;;;;;;;14.40;9.75;;;17.40;99.90;;;;;;4994762;28;20122;-74
2023/09/07 01:20:32;;;;;;;13.30;9.75;;;17.40;99.90;;;;;;5011931;28;20020;-73
2023/09/07 01:22:58;;;;;;;18.33;9.68;;;17.40;99.90;;;;;;4999274;28;20034;-73
2023/09/07 01:25:24;;;;;;;16.33;10.27;;;17.40;99.90;;;;;;4994504;28;20041;-73
2023/09/07 01:27:50;;;;;;;19.55;10.60;;;17.40;99.90;;;;;;4994005;28;20053;-73
2023/09/07 01:30:17;;;;;;;16.73;9.88;;;17.40;99.90;;;;;;4994500;28;20026;-73
2023/09/07 01:32:43;;;;;;;17.55;10.95;;;17.40;99.90;;;;;;4994100;28;20037;-74
2023/09/07 01:35:11;;;;;;;16.83;9.85;;;17.40;99.90;;;;;;5012159;28;20620;-73
2023/09/07 01:37:36;;;;;;;15.68;10.43;;;17.40;99.90;;;;;;4994240;28;20033;-73
2023/09/07 01:40:07;;;;;;;15.25;9.25;;;17.40;99.90;;;;;;4994441;28;20238;-74
2023/09/07 01:42:33;;;;;;;15.60;9.05;;;17.30;99.90;;;;;;4996833;28;20409;-74
2023/09/07 01:44:59;;;;;;;15.90;10.32;;;17.30;99.90;;;;;;5022248;28;20075;-73
2023/09/07 01:47:25;;;;;;;20.95;11.52;;;17.40;99.90;;;;;;5011610;28;20376;-73
2023/09/07 01:49:50;;;;;;;19.10;11.23;;;17.40;99.90;;;;;;4994247;28;20504;-73
2023/09/07 01:52:16;;;;;;;16.60;10.63;;;17.40;99.90;;;;;;5011515;28;20042;-74
2023/09/07 01:54:42;;;;;;;16.35;10.90;;;17.30;99.90;;;;;;4994298;28;20134;-73
2023/09/07 01:57:08;;;;;;;18.17;12.13;;;17.30;99.90;;;;;;5011702;28;20030;-73
2023/09/07 01:59:35;;;;;;;17.73;11.15;;;17.30;99.90;;;;;;4994234;28;20025;-73
2023/09/07 02:02:01;;;;;;;18.25;11.38;;;17.30;99.90;;;;;;4994235;28;20142;-73
2023/09/07 02:04:27;;;;;;;18.85;12.30;;;17.30;99.90;;;;;;4994040;28;20147;-73
2023/09/07 02:06:53;;;;;;;20.42;12.38;;;17.20;99.90;;;;;;5011811;28;20076;-73
2023/09/07 02:09:18;;;;;;;17.45;10.32;;;17.20;99.90;;;;;;5011507;28;20046;-73
2023/09/07 02:11:44;;;;;;;23.60;12.07;;;17.10;99.90;;;;;;4993818;28;20129;-73
2023/09/07 02:14:10;;;;;;;20.40;12.05;;;17.00;99.90;;;;;;4993791;28;20030;-73
2023/09/07 02:16:36;;;;;;;20.63;11.75;;;16.90;99.90;;;;;;5011546;28;20033;-74
2023/09/07 02:19:04;;;;;;;18.73;11.63;;;16.90;99.90;;;;;;4994089;28;20028;-74
2023/09/07 02:21:30;;;;;;;17.05;11.88;;;16.90;99.90;;;;;;4993954;28;20445;-73
2023/09/07 02:23:56;;;;;;;20.30;12.65;;;16.90;99.90;;;;;;5011544;28;20084;-73
2023/09/07 02:26:21;;;;;;;20.10;12.48;;;16.90;99.90;;;;;;4993661;28;20042;-74
2023/09/07 02:28:47;;;;;;;17.42;11.65;;;16.80;99.90;;;;;;4993984;28;20502;-73
2023/09/07 02:31:13;;;;;;;17.90;12.50;;;16.80;99.90;;;;;;5011326;28;20109;-73
2023/09/07 02:33:39;;;;;;;20.05;11.20;;;16.70;99.90;;;;;;5011899;28;20026;-74
2023/09/07 02:36:05;;;;;;;17.83;10.38;;;16.70;99.90;;;;;;4993699;28;20104;-73
2023/09/07 02:38:31;;;;;;;17.83;11.40;;;16.60;99.90;;;;;;4993572;28;20034;-73
2023/09/07 02:40:57;;;;;;;18.25;11.77;;;16.60;99.90;;;;;;5011305;28;20030;-74
2023/09/07 02:43:23;;;;;;;17.85;10.73;;;16.60;99.90;;;;;;4993345;28;20072;-73
2023/09/07 02:45:50;;;;;;;20.42;11.40;;;16.50;99.90;;;;;;4993471;28;20105;-73
2023/09/07 02:48:17;;;;;;;18.15;11.18;;;16.50;99.90;;;;;;4994827;28;20030;-73
2023/09/07 02:50:45;;;;;;;17.45;11.02;;;16.70;99.90;;;;;;5013290;28;20076;-74
2023/09/07 02:53:11;;;;;;;20.30;11.77;;;16.70;99.90;;;;;;4995196;28;20490;-74
2023/09/07 02:55:39;;;;;;;16.20;10.73;;;16.60;99.90;;;;;;5000343;28;20029;-73
2023/09/07 02:58:05;;;;;;;16.13;10.45;;;16.60;99.90;;;;;;4998608;28;20053;-73
2023/09/07 03:00:31;;;;;;;19.40;10.80;;;16.70;99.90;;;;;;4997326;28;20030;-73
2023/09/07 03:03:00;;;;;;;23.30;11.68;;;16.60;99.90;;;;;;4996797;28;20478;-73
2023/09/07 03:05:28;;;;;;;19.55;11.32;;;16.50;99.90;;;;;;4991002;28;20027;-73
2023/09/07 03:07:54;;;;;;;23.15;11.98;;;16.40;99.90;;;;;;4996302;28;20037;-73
2023/09/07 03:10:20;;;;;;;20.40;12.98;;;16.50;99.90;;;;;;4996750;28;20042;-74
2023/09/07 03:12:46;;;;;;;20.58;12.30;;;16.40;99.90;;;;;;4996730;28;20170;-74
2023/09/07 03:15:12;;;;;;;20.75;11.38;;;16.40;99.90;;;;;;4996542;28;20133;-74
2023/09/07 03:17:40;;;;;;;18.42;10.82;;;16.40;99.90;;;;;;4996942;28;20470;-74
2023/09/07 03:20:16;;;;;;;22.80;11.45;;;16.40;99.90;;;;;;5013886;28;20030;-74
2023/09/07 03:22:47;;;;;;;17.27;11.32;;;16.40;99.90;;;;;;4996486;28;20034;-74
2023/09/07 03:25:14;;;;;;;23.52;12.02;;;16.40;99.90;;;;;;4996577;28;20022;-74
2023/09/07 03:27:40;;;;;;;20.00;11.63;;;16.30;99.90;;;;;;4996586;28;20037;-74
2023/09/07 03:30:09;;;;;;;21.38;13.40;;;16.40;99.90;;;;;;4996538;28;20092;-74
2023/09/07 03:32:36;;;;;;;20.15;13.10;;;16.30;99.90;;;;;;4996369;28;20045;-74
2023/09/07 03:35:09;;;;;;;24.08;13.05;;;16.30;99.90;;;;;;4996498;28;20048;-74
2023/09/07 03:37:35;;;;;;;21.13;12.75;;;16.30;99.90;;;;;;4996149;28;20023;-74
2023/09/07 03:40:01;;;;;;;20.27;11.15;;;16.30;99.90;;;;;;4996020;28;20026;-74
2023/09/07 03:42:27;;;;;;;20.85;12.32;;;16.30;99.90;;;;;;4995484;28;20045;-74
2023/09/07 03:44:53;;;;;;;27.23;13.15;;;16.20;99.90;;;;;;4996122;28;20080;-73
2023/09/07 03:47:19;;;;;;;16.60;10.70;;;16.20;99.90;;;;;;4996556;28;20442;-74
2023/09/07 03:49:44;;;;;;;21.45;13.13;;;16.20;99.90;;;;;;4983972;28;20034;-74
2023/09/07 03:52:11;;;;;;;26.85;12.18;;;16.10;99.90;;;;;;4989796;28;20038;-74
2023/09/07 03:54:38;;;;;;;21.83;13.32;;;16.20;99.90;;;;;;4986633;28;20427;-73
2023/09/07 03:57:04;;;;;;;19.23;12.80;;;16.10;99.90;;;;;;4987779;28;20026;-74
2023/09/07 03:59:31;;;;;;;21.75;12.48;;;16.00;99.90;;;;;;4994827;28;20060;-73
2023/09/07 04:01:57;;;;;;;20.08;12.70;;;;;;;;;;5013665;28;20049;-74
2023/09/07 04:04:23;;;;;;;19.40;13.13;;;16.00;99.90;;;;;;4995247;28;20038;-74
2023/09/07 04:06:49;;;;;;;26.77;17.75;;;16.00;99.90;;;;;;4995551;28;20044;-73
2023/09/07 04:09:15;;;;;;;25.90;15.70;;;16.00;99.90;;;;;;5013313;28;20449;-73
2023/09/07 04:11:41;;;;;;;23.63;13.45;;;16.10;99.90;;;;;;5013109;28;20030;-74
2023/09/07 04:14:07;;;;;;;17.10;11.45;;;16.10;99.90;;;;;;4995879;28;20033;-73
2023/09/07 04:16:33;;;;;;;18.05;11.05;;;16.10;99.90;;;;;;5012646;28;20113;-73
2023/09/07 04:18:58;;;;;;;19.77;12.38;;;16.10;99.90;;;;;;5012773;28;20363;-73
2023/09/07 04:21:24;;;;;;;22.13;11.23;;;16.10;99.90;;;;;;4994166;28;20066;-73
2023/09/07 04:23:51;;;;;;;28.35;11.93;;;16.20;99.90;;;;;;4988914;28;20116;-75
2023/09/07 04:26:16;;;;;;;20.48;11.43;;;16.20;99.90;;;;;;4994975;28;20065;-73
2023/09/07 04:28:42;;;;;;;21.27;12.77;;;16.30;99.90;;;;;;5013389;28;20018;-73
2023/09/07 04:31:08;;;;;;;18.83;11.65;;;16.50;99.90;;;;;;4995281;28;20493;-74
2023/09/07 04:33:34;;;;;;;19.20;11.27;;;16.80;99.90;;;;;;4994750;28;20038;-74
2023/09/07 04:36:12;;;;;;;17.88;11.25;;;17.10;99.90;;;;;;5012990;28;21020;-74
2023/09/07 04:38:39;;;;;;;18.52;11.25;;;17.50;99.90;;;;;;5011287;28;20022;-74
2023/09/07 04:41:12;;;;;;;18.00;11.50;;;17.80;99.90;;;;;;5012882;28;20492;-74
2023/09/07 04:43:40;;;;;;;20.63;11.00;;;18.10;99.90;;;;;;4995166;28;20033;-74
2023/09/07 04:46:07;;;;;;;16.10;10.50;;;18.40;99.90;;;;;;4995025;28;20022;-74
2023/09/07 04:48:36;;;;;;;18.20;11.20;;;18.90;99.90;;;;;;5012303;28;20469;-74
2023/09/07 04:51:03;;;;;;;20.90;11.75;;;18.90;99.90;;;;;;4994312;28;20088;-74
2023/09/07 04:53:31;;;;;;;19.50;12.20;;;19.20;99.90;;;;;;4999862;28;20157;-74
2023/09/07 04:55:58;;;;;;;26.25;11.65;;;19.40;99.90;;;;;;4994332;28;20037;-74
2023/09/07 04:58:24;;;;;;;19.95;10.90;;;19.70;99.90;;;;;;5011605;28;20026;-73
2023/09/07 05:00:51;;;;;;;19.17;10.65;;;20.20;99.90;;;;;;5010578;28;20026;-76
2023/09/07 05:03:18;;;;;;;19.20;11.07;;;20.40;99.90;;;;;;5011271;28;20398;-75
2023/09/07 05:05:44;;;;;;;17.80;11.32;;;20.60;99.90;;;;;;5012385;28;20034;-74
2023/09/07 05:08:10;;;;;;;18.08;10.77;;;20.80;99.90;;;;;;4994027;28;20024;-73
2023/09/07 05:10:37;;;;;;;19.52;11.23;;;21.10;99.90;;;;;;4994138;28;20038;-74
2023/09/07 05:13:03;;;;;;;20.88;10.95;;;21.40;99.90;;;;;;5012445;28;20124;-73
2023/09/07 05:15:29;;;;;;;21.13;11.90;;;21.70;99.90;;;;;;4994603;28;20121;-74
2023/09/07 05:17:55;;;;;;;18.98;11.40;;;21.80;99.90;;;;;;4994401;28;20061;-74
2023/09/07 05:20:21;;;;;;;23.02;12.73;;;22.10;99.90;;;;;;4992505;28;20026;-74
2023/09/07 05:22:48;;;;;;;22.08;13.13;;;21.80;99.90;;;;;;5010741;28;20030;-74
2023/09/07 05:25:14;;;;;;;19.40;11.90;;;21.10;99.90;;;;;;4993665;28;20121;-74
2023/09/07 05:27:40;;;;;;;25.58;13.20;;;20.80;99.90;;;;;;4989001;28;20030;-74
2023/09/07 05:30:06;;;;;;;24.70;14.05;;;20.70;99.90;;;;;;4999006;28;20413;-74
2023/09/07 05:32:33;;;;;;;22.75;12.60;;;20.50;99.90;;;;;;4994505;28;20120;-75
2023/09/07 05:35:00;;;;;;;28.38;13.50;;;20.30;99.90;;;;;;4994077;28;20524;-75
2023/09/07 05:37:26;;;;;;;20.17;13.20;;;20.10;99.90;;;;;;4994578;28;20054;-74
2023/09/07 05:39:52;;;;;;;24.60;13.18;;;20.00;99.90;;;;;;5011312;28;20041;-74
2023/09/07 05:42:17;;;;;;;20.48;13.13;;;20.00;99.90;;;;;;4995160;28;20045;-74
2023/09/07 05:44:43;;;;;;;22.92;13.07;;;20.10;99.90;;;;;;5024509;28;20026;-74
2023/09/07 05:47:09;;;;;;;30.20;14.05;;;20.00;99.90;;;;;;4994276;28;20033;-74
2023/09/07 05:49:35;;;;;;;24.17;14.23;;;20.20;99.90;;;;;;4994429;28;20031;-74
2023/09/07 05:52:01;;;;;;;31.05;14.05;;;20.20;99.90;;;;;;5011824;28;20041;-74
2023/09/07 05:54:27;;;;;;;21.00;13.02;;;20.40;99.90;;;;;;5011558;28;20021;-74
2023/09/07 05:56:53;;;;;;;21.70;14.02;;;20.60;99.90;;;;;;4994424;28;20037;-74
2023/09/07 05:59:19;;;;;;;22.10;12.07;;;20.60;99.90;;;;;;5010315;28;20031;-75
2023/09/07 06:01:45;;;;;;;22.60;11.63;;;20.80;99.90;;;;;;4988329;28;20462;-74
2023/09/07 06:04:11;;;;;;;22.48;11.75;;;20.80;99.90;;;;;;5010541;28;20052;-74
2023/09/07 06:06:37;;;;;;;20.70;11.18;;;20.90;99.90;;;;;;4994008;28;20121;-74
2023/09/07 06:09:03;;;;;;;16.88;11.38;;;20.90;99.90;;;;;;4993857;28;20128;-74
2023/09/07 06:11:31;;;;;;;22.77;12.88;;;20.90;99.90;;;;;;5011246;28;20026;-75
2023/09/07 06:13:58;;;;;;;20.13;11.65;;;21.00;99.90;;;;;;4993992;28;20478;-74
2023/09/07 06:16:24;;;;;;;20.08;12.77;;;21.00;99.90;;;;;;4989006;28;20122;-74
2023/09/07 06:18:50;;;;;;;18.35;11.55;;;21.10;99.90;;;;;;4988390;28;20065;-74
2023/09/07 06:21:18;;;;;;;21.80;11.02;;;21.30;99.90;;;;;;4987359;28;20446;-74
2023/09/07 06:23:47;;;;;;;20.08;12.95;;;20.90;99.90;;;;;;4983681;28;20026;-75
2023/09/07 06:26:14;;;;;;;17.90;11.82;;;21.00;99.90;;;;;;4996072;28;20565;-74
2023/09/07 06:28:40;;;;;;;19.00;11.55;;;21.40;99.90;;;;;;4988432;28;20063;-74
2023/09/07 06:31:06;;;;;;;18.95;11.52;;;21.60;99.90;;;;;;4997791;28;20504;-74
2023/09/07 06:33:32;;;;;;;19.85;12.60;;;21.60;99.90;;;;;;4995630;28;20034;-74
2023/09/07 06:36:02;;;;;;;18.08;12.48;;;21.20;99.90;;;;;;4994122;28;20556;-74
2023/09/07 06:38:28;;;;;;;23.15;13.35;;;21.70;99.90;;;;;;4996317;28;20057;-74
2023/09/07 06:40:53;;;;;;;18.15;12.05;;;21.80;99.90;;;;;;4988451;28;20034;-74
2023/09/07 06:43:20;;;;;;;18.15;12.73;;;21.70;99.90;;;;;;4991550;28;20121;-74
2023/09/07 06:45:47;;;;;;;20.80;12.02;;;21.70;99.90;;;;;;4997338;28;20073;-74
2023/09/07 06:48:14;;;;;;;18.83;12.63;;;21.90;99.90;;;;;;4997098;28;20103;-74
2023/09/07 06:50:40;;;;;;;19.17;12.13;;;22.00;99.90;;;;;;4996192;28;20125;-74
2023/09/07 06:53:06;;;;;;;25.55;11.23;;;22.30;99.90;;;;;;4985545;28;20049;-74
2023/09/07 06:55:32;;;;;;;18.27;11.05;;;22.30;99.90;;;;;;5014610;28;20025;-74
2023/09/07 06:58:00;;;;;;;14.70;9.68;;;;;;;;;;5014658;28;20022;-74
2023/09/07 07:00:25;;;;;;;15.52;10.00;;;22.20;99.90;;;;;;4996918;28;20517;-74
2023/09/07 07:02:51;;;;;;;15.63;9.15;;;22.10;99.90;;;;;;4997110;28;20040;-75
2023/09/07 07:05:18;;;;;;;17.63;9.18;;;22.30;99.90;;;;;;4996977;28;20124;-73
2023/09/07 07:07:44;;;;;;;12.07;7.95;;;22.60;99.90;;;;;;4991399;28;20022;-73
2023/09/07 07:10:10;;;;;;;17.42;8.13;;;23.00;99.90;;;;;;4996295;28;20064;-75
2023/09/07 07:12:38;;;;;;;15.93;8.73;;;23.30;99.90;;;;;;5011896;28;20038;-73
2023/09/07 07:15:05;;;;;;;13.00;8.65;;;22.90;99.70;;;;;;4991046;28;20544;-73
2023/09/07 07:17:31;;;;;;;16.77;8.18;;;23.20;99.90;;;;;;5013911;28;20062;-73
2023/09/07 07:19:57;;;;;;;14.52;8.13;;;23.60;99.90;;;;;;4996501;28;20552;-75
2023/09/07 07:22:23;;;;;;;16.95;8.07;;;23.90;99.90;;;;;;4996425;28;20121;-73
2023/09/07 07:24:50;;;;;;;15.07;7.95;;;24.00;97.70;;;;;;4996036;28;20084;-74
2023/09/07 07:27:17;;;;;;;15.52;8.10;;;24.30;99.20;;;;;;4996389;28;20049;-73
2023/09/07 07:29:44;;;;;;;13.85;7.07;;;24.50;98.70;;;;;;4996791;28;20057;-73
2023/09/07 07:32:10;;;;;;;13.07;7.47;;;24.60;98.00;;;;;;4996182;28;20108;-73
2023/09/07 07:34:36;;;;;;;12.60;7.53;;;24.90;97.80;;;;;;4996571;28;20026;-74
2023/09/07 07:37:02;;;;;;;13.00;7.25;;;24.80;96.40;;;;;;4996311;28;20100;-74
2023/09/07 07:39:28;;;;;;;14.55;7.07;;;24.60;95.90;;;;;;4996332;28;20458;-74
2023/09/07 07:41:54;;;;;;;14.10;7.50;;;24.90;97.10;;;;;;4995750;28;20065;-73
2023/09/07 07:44:20;;;;;;;14.95;7.32;;;25.00;96.00;;;;;;4996318;28;20026;-74
2023/09/07 07:46:47;;;;;;;14.82;7.07;;;25.20;95.40;;;;;;5014159;28;20385;-74
2023/09/07 07:49:15;;;;;;;12.52;8.10;;;24.80;94.20;;;;;;5009357;28;20022;-74
2023/09/07 07:51:42;;;;;;;10.48;6.18;;;25.10;95.70;;;;;;4983431;28;20613;-74
2023/09/07 07:54:08;;;;;;;9.25;5.57;;;24.80;93.10;;;;;;4981792;28;20033;-73
2023/09/07 07:56:34;;;;;;;13.65;6.40;;;25.10;93.80;;;;;;4987311;28;20033;-73
2023/09/07 07:59:01;;;;;;;19.23;5.72;;;25.00;93.00;;;;;;4990674;28;20113;-73
2023/09/07 08:01:29;;;;;;;10.25;5.28;;;25.10;92.80;;;;;;4991441;28;20105;-73
2023/09/07 08:03:55;;;;;;;8.40;5.13;;;24.60;91.50;;;;;;4993926;28;20060;-74
2023/09/07 08:06:22;;;;;;;10.00;5.65;;;24.60;92.80;;;;;;4995627;28;20799;-73
2023/09/07 08:08:49;;;;;;;8.93;5.65;;;24.90;92.50;;;;;;4995653;28;20060;-73
2023/09/07 08:11:15;;;;;;;11.93;5.50;;;25.00;90.60;;;;;;4995722;28;20038;-74
2023/09/07 08:13:41;;;;;;;7.07;4.75;;;24.80;90.70;;;;;;4999636;28;20045;-73
2023/09/07 08:16:08;;;;;;;12.23;5.30;;;24.70;91.10;;;;;;5010830;28;20073;-73
2023/09/07 08:18:34;;;;;;;12.63;4.90;;;24.80;90.90;;;;;;4990580;28;20551;-73
2023/09/07 08:21:00;;;;;;;17.70;5.35;;;25.00;90.40;;;;;;4995484;28;20524;-73
2023/09/07 08:23:26;;;;;;;9.73;4.57;;;25.20;91.30;;;;;;4995690;28;20493;-74
2023/09/07 08:25:54;;;;;;;13.60;5.88;;;25.50;91.00;;;;;;4994678;28;20073;-74
2023/09/07 08:28:22;;;;;;;8.95;5.25;;;25.40;92.10;;;;;;4995372;28;20022;-73
2023/09/07 08:30:54;;;;;;;7.78;5.00;;;25.40;90.30;;;;;;5012961;28;20476;-73
2023/09/07 08:33:23;;;;;;;8.63;5.53;;;25.20;90.50;;;;;;5012426;28;20486;-73
2023/09/07 08:35:55;;;;;;;12.50;5.03;;;24.60;90.50;;;;;;5013458;28;20100;-74
2023/09/07 08:38:24;;;;;;;7.35;4.68;;;24.70;90.00;;;;;;5010328;28;20033;-74
2023/09/07 08:40:51;;;;;;;7.93;4.55;;;24.70;90.00;;;;;;5012810;28;20032;-74
2023/09/07 08:43:19;;;;;;;6.45;4.28;;;24.70;90.10;;;;;;5013006;28;20093;-73
2023/09/07 08:45:52;;;;;;;11.50;4.78;;;24.80;90.10;;;;;;5007738;28;20023;-73
2023/09/07 08:48:20;;;;;;;8.70;4.57;;;25.00;88.80;;;;;;5009261;28;20500;-73
2023/09/07 08:50:50;;;;;;;10.43;4.65;;;25.40;88.60;;;;;;5012347;28;20014;-73
2023/09/07 08:53:20;;;;;;;13.85;4.40;;;25.60;90.00;;;;;;4994432;28;20149;-73
2023/09/07 08:55:46;;;;;;;12.75;4.68;;;25.90;90.10;;;;;;5012576;28;20080;-74
2023/09/07 08:58:13;;;;;;;8.60;5.05;;;26.20;90.30;;;;;;5012315;28;20026;-73
2023/09/07 09:00:43;;;;;;;7.35;4.57;;;26.40;90.10;;;;;;5010301;28;20474;-73
2023/09/07 09:03:10;;;;;;;12.23;4.90;;;26.50;88.80;;;;;;5005436;28;20105;-74
2023/09/07 09:05:38;;;;;;;9.13;5.00;;;26.60;86.90;;;;;;5012077;28;20026;-73
2023/09/07 09:08:05;;;;;;;7.38;4.25;;;26.60;87.20;;;;;;5003055;28;20594;-73
2023/09/07 09:10:31;;;;;;;9.75;4.13;;;26.80;89.20;;;;;;5004232;28;20042;-73
2023/09/07 09:12:59;;;;;;;7.85;3.90;;;26.90;88.00;;;;;;5012132;28;20128;-74
2023/09/07 09:15:27;;;;;;;8.38;4.38;;;27.10;86.30;;;;;;5012500;28;20026;-74
2023/09/07 09:17:53;;;;;;;7.63;4.40;;;27.20;87.80;;;;;;5012552;28;20385;-73
2023/09/07 09:20:24;;;;;;;10.13;4.15;;;27.10;85.00;;;;;;5012325;28;20098;-73
2023/09/07 09:22:54;;;;;;;9.27;4.22;;;27.20;87.00;;;;;;5012369;28;20486;-73
2023/09/07 09:25:21;;;;;;;10.80;4.45;;;27.30;86.80;;;;;;5012088;28;20018;-73
2023/09/07 09:27:47;;;;;;;6.75;3.50;;;27.40;86.00;;;;;;5003933;28;20513;-73
2023/09/07 09:30:16;;;;;;;8.52;4.35;;;27.50;86.40;;;;;;5011423;28;20341;-73
2023/09/07 09:32:43;;;;;;;24.40;4.85;;;27.50;86.00;;;;;;5012218;28;20116;-74
2023/09/07 09:35:09;;;;;;;9.40;4.03;;;27.60;85.80;;;;;;5011390;28;20105;-73
2023/09/07 09:37:46;;;;;;;11.60;4.25;;;27.60;84.80;;;;;;5008354;28;20042;-74
2023/09/07 09:40:13;;;;;;;10.10;4.35;;;27.40;82.30;;;;;;5007344;28;20104;-73
2023/09/07 09:42:42;;;;;;;10.77;4.00;;;27.30;81.20;;;;;;5009579;28;20017;-73
2023/09/07 09:45:09;;;;;;;6.35;3.17;;;27.40;82.40;;;;;;5020186;28;20037;-73
2023/09/07 09:47:39;;;;;;;9.15;4.28;;;27.40;81.80;;;;;;5011168;28;20445;-73
2023/09/07 09:50:08;;;;;;;8.35;3.90;;;27.40;80.60;;;;;;5012166;28;20100;-73
2023/09/07 09:52:37;;;;;;;7.47;3.53;;;27.50;82.00;;;;;;5010819;28;20069;-73
2023/09/07 09:55:08;;;;;;;11.80;3.53;;;27.60;81.30;;;;;;5003066;28;20057;-72
2023/09/07 09:57:35;;;;;;;9.95;4.35;;;27.70;82.50;;;;;;5013624;28;20416;-74
2023/09/07 10:00:07;;;;;;;7.32;3.95;;;27.70;80.80;;;;;;5013011;28;20351;-73
2023/09/07 10:02:40;;;;;;;7.97;3.75;;;27.60;78.70;;;;;;5015766;28;20026;-73
2023/09/07 10:05:09;;;;;;;7.20;3.47;;;27.60;78.10;;;;;;5015600;28;20376;-73
2023/09/07 10:07:43;;;;;;;14.23;4.15;;;27.20;77.80;;;;;;5015461;28;20026;-73
2023/09/07 10:10:15;;;;;;;17.75;4.78;;;27.70;79.50;;;;;;5014866;28;20547;-73
2023/09/07 10:12:42;;;;;;;6.82;3.80;;;27.80;80.20;;;;;;5015337;28;20030;-74
2023/09/07 10:15:20;;;;;;;11.27;3.75;;;27.80;77.30;;;;;;5014841;28;20053;-73
2023/09/07 10:17:49;;;;;;;6.32;3.63;;;27.70;76.80;;;;;;5015386;28;20029;-73
2023/09/07 10:20:22;;;;;;;11.32;4.25;;;27.80;76.80;;;;;;5013242;28;20109;-73
2023/09/07 10:22:48;;;;;;;9.68;4.20;;;27.70;74.70;;;;;;5015600;28;20077;-73
2023/09/07 10:25:22;;;;;;;7.28;4.28;;;27.60;76.30;;;;;;5015210;28;20026;-73
2023/09/07 10:27:48;;;;;;;8.27;3.85;;;27.70;77.20;;;;;;5014331;28;20022;-73
2023/09/07 10:30:22;;;;;;;9.27;3.90;;;27.80;76.10;;;;;;5014403;28;20120;-73
2023/09/07 10:32:48;;;;;;;5.35;3.78;;;27.90;76.90;;;;;;5015200;28;20042;-74
2023/09/07 10:35:21;;;;;;;7.50;4.05;;;27.80;76.00;;;;;;5015160;28;20026;-74
2023/09/07 10:37:48;;;;;;;8.93;4.03;;;27.80;76.50;;;;;;5015326;28;20030;-73
2023/09/07 10:40:20;;;;;;;13.25;4.47;;;27.80;74.10;;;;;;5014447;28;20029;-73
2023/09/07 10:42:45;;;;;;;9.35;4.43;;;27.90;74.90;;;;;;5014428;28;20026;-73
2023/09/07 10:45:16;;;;;;;11.10;4.50;;;28.10;76.00;;;;;;5014757;28;20402;-74
2023/09/07 10:47:43;;;;;;;7.82;4.30;;;28.20;78.60;;;;;;5015179;28;20312;-73
2023/09/07 10:50:14;;;;;;;11.63;4.53;;;28.20;74.10;;;;;;5014566;28;20025;-73
2023/09/07 10:52:42;;;;;;;18.33;5.07;;;28.20;75.40;;;;;;5015662;28;20038;-73
2023/09/07 10:55:10;;;;;;;10.48;4.55;;;28.10;73.10;;;;;;5001701;28;20022;-73
2023/09/07 10:57:46;;;;;;;9.02;4.45;;;28.10;73.70;;;;;;5014742;28;20029;-73
2023/09/07 11:00:14;;;;;;;7.28;3.55;;;28.10;75.30;;;;;;5014584;28;20030;-73
2023/09/07 11:02:41;;;;;;;10.18;4.90;;;27.90;72.90;;;;;;5013540;28;20470;-73
2023/09/07 11:05:08;;;;;;;7.78;3.83;;;27.90;73.90;;;;;;5010981;28;20101;-74
2023/09/07 11:07:34;;;;;;;6.60;3.45;;;27.80;74.00;;;;;;5014422;28;20121;-74
2023/09/07 11:10:00;;;;;;;8.88;4.40;;;28.00;75.90;;;;;;5009113;28;20050;-74
2023/09/07 11:12:26;;;;;;;12.75;3.95;;;28.00;74.90;;;;;;5009537;28;20048;-74
2023/09/07 11:14:53;;;;;;;7.85;3.88;;;28.20;74.80;;;;;;5003960;28;20026;-73
2023/09/07 11:17:19;;;;;;;10.00;3.95;;;28.30;74.50;;;;;;5009087;28;20026;-73
2023/09/07 11:19:51;;;;;;;7.35;3.60;;;28.30;75.40;;;;;;5010540;28;20044;-73
2023/09/07 11:22:16;;;;;;;7.75;4.03;;;28.30;73.50;;;;;;5002046;28;20461;-73
2023/09/07 11:24:42;;;;;;;12.75;3.83;;;28.20;72.90;;;;;;5014108;28;20022;-73
2023/09/07 11:27:09;;;;;;;5.70;3.47;;;28.10;72.70;;;;;;5013781;28;20525;-73
2023/09/07 11:29:35;;;;;;;8.43;3.90;;;28.10;73.70;;;;;;5013607;28;20034;-73
2023/09/07 11:32:11;;;;;;;8.65;3.72;;;28.20;72.30;;;;;;5015916;28;20040;-74
2023/09/07 11:34:49;;;;;;;9.18;4.13;;;28.20;72.90;;;;;;5013960;28;20030;-73
2023/09/07 11:37:15;;;;;;;10.32;4.40;;;28.20;71.70;;;;;;5013833;28;20018;-73
2023/09/07 11:39:40;;;;;;;7.03;4.43;;;28.20;72.90;;;;;;5014131;28;20085;-73
2023/09/07 11:42:06;;;;;;;11.77;4.45;;;28.30;72.80;;;;;;5013064;28;20041;-73
2023/09/07 11:44:32;;;;;;;13.65;4.78;;;28.50;75.20;;;;;;5009792;28;20073;-73
2023/09/07 11:46:58;;;;;;;8.57;3.50;;;28.50;73.60;;;;;;5013690;28;20101;-73
2023/09/07 11:49:24;;;;;;;13.68;4.63;;;28.50;73.60;;;;;;5012777;28;20057;-73
2023/09/07 11:51:50;;;;;;;11.48;5.28;;;28.60;74.60;;;;;;5012961;28;20041;-73
2023/09/07 11:54:16;;;;;;;7.95;3.90;;;28.60;72.60;;;;;;5013739;28;20049;-73
2023/09/07 11:56:42;;;;;;;6.28;3.58;;;28.60;72.10;;;;;;5008372;28;20053;-74
2023/09/07 11:59:09;;;;;;;8.45;3.63;;;28.60;71.10;;;;;;5011799;28;20041;-73
2023/09/07 12:01:35;;;;;;;7.93;4.18;;;28.60;71.00;;;;;;5010963;28;20022;-74
2023/09/07 12:04:01;;;;;;;9.30;3.95;;;28.60;71.10;;;;;;5007518;28;20113;-73
2023/09/07 12:06:27;;;;;;;8.50;4.18;;;28.70;73.20;;;;;;5009388;28;20113;-73
2023/09/07 12:09:06;;;;;;;8.18;3.20;;;28.60;70.90;;;;;;5009964;28;20065;-73
2023/09/07 12:11:32;;;;;;;21.02;4.50;;;28.60;72.60;;;;;;5002217;28;20092;-73
2023/09/07 12:13:59;;;;;;;6.30;3.45;;;28.60;69.80;;;;;;5004815;28;20061;-74
2023/09/07 12:16:26;;;;;;;7.13;3.78;;;28.60;71.40;;;;;;5013566;28;20397;-73
2023/09/07 12:18:52;;;;;;;5.70;3.03;;;28.60;71.60;;;;;;5013618;28;20029;-73
2023/09/07 12:21:19;;;;;;;10.00;3.70;;;28.50;67.80;;;;;;5012241;28;20029;-73
2023/09/07 12:23:44;;;;;;;6.25;3.38;;;28.50;69.80;;;;;;5013233;28;20033;-74
2023/09/07 12:26:11;;;;;;;8.52;3.50;;;28.60;70.70;;;;;;5013252;28;20033;-73
2023/09/07 12:28:37;;;;;;;6.72;3.60;;;28.60;69.40;;;;;;5012783;28;20413;-73
2023/09/07 12:31:04;;;;;;;43.10;5.57;;;28.50;68.10;;;;;;5013136;28;20126;-73
2023/09/07 12:33:31;;;;;;;6.65;3.35;;;28.50;68.40;;;;;;5013174;28;20057;-73
2023/09/07 12:35:57;;;;;;;7.30;3.85;;;28.50;69.50;;;;;;5012812;28;20104;-73